Time;durP1;ratioP1;P1;durP2;ratioP2;P2;SDS_P1;SDS_P2;PMS_P1;PMS_P2;Temp;Humidity;BMP_temperature;BMP_pressure;BME280_temperature;BME280_humidity;BME280_pressure;Samples;Min_cycle;Max_cycle;Signal;HPM_P1;HPM_P2
2020/06/01 00:03:30;;;;;;;2;1.1;;;;;;;11.66;64.7334;941.3608;;;;
2020/06/01 00:05:49;;;;;;;6.1;1.4;;;;;;;11.62;64.89941;941.3397;;;;
2020/06/01 00:08:12;;;;;;;3.6;1.3;;;;;;;11.62;64.24902;941.3923;;;;
2020/06/01 00:18:20;;;;;;;2.5;1.2;;;;;;;11.53;64.84082;941.3808;;;;
2020/06/01 00:20:33;;;;;;;4;1.2;;;;;;;11.52;64.81738;941.3703;;;;
2020/06/01 00:22:51;;;;;;;3.5;1.3;;;;;;;11.5;64.81348;941.3781;;;;
2020/06/01 00:25:18;;;;;;;3.4;1.3;;;;;;;11.41;65.41797;941.2476;;;;
2020/06/01 00:27:42;;;;;;;2.6;1.4;;;;;;;11.45;66.93359;941.2914;;;;
2020/06/01 00:30:23;;;;;;;2.6;1.2;;;;;;;11.43;66.88477;941.3463;;;;
2020/06/01 00:32:54;;;;;;;4.1;1.5;;;;;;;11.42;65.72754;941.3317;;;;
2020/06/01 00:35:09;;;;;;;3.6;1.4;;;;;;;11.42;65.03125;941.3245;;;;
2020/06/01 00:37:34;;;;;;;2.8;1.4;;;;;;;11.2;65.67188;941.3406;;;;
2020/06/01 00:42:24;;;;;;;2.9;1.5;;;;;;;11.14;66.56738;941.2498;;;;
2020/06/01 00:49:46;;;;;;;3.1;1.4;;;;;;;10.98;67.2041;941.3289;;;;
2020/06/01 00:54:28;;;;;;;2.9;1.4;;;;;;;10.9;68.20801;941.2952;;;;
2020/06/01 00:57:03;;;;;;;3;1.6;;;;;;;11;67.58398;941.1959;;;;
2020/06/01 00:59:19;;;;;;;1.6;1.2;;;;;;;10.94;67.49512;941.2231;;;;
2020/06/01 01:02:23;;;;;;;2.2;1.5;;;;;;;10.82;67.97949;941.2527;;;;
2020/06/01 01:04:06;;;;;;;4.1;1.3;;;;;;;10.71;67.84668;941.2637;;;;
2020/06/01 01:06:32;;;;;;;5.2;1.6;;;;;;;10.6;68.45801;941.2858;;;;
2020/06/01 01:09:10;;;;;;;2.9;1.3;;;;;;;10.61;68.65332;941.2245;;;;
2020/06/01 01:11:48;;;;;;;4.3;1.3;;;;;;;10.58;68.48926;941.303;;;;
2020/06/01 01:41:50;;;;;;;3.9;1.3;;;;;;;10.08;70.21289;941.18;;;;
2020/06/01 01:43:42;;;;;;;2.6;1.3;;;;;;;10.08;69.85938;941.1984;;;;
2020/06/01 01:46:38;;;;;;;3.1;1.3;;;;;;;10.14;69.48047;941.1707;;;;
2020/06/01 01:49:29;;;;;;;2.2;1.2;;;;;;;10;70.07422;941.2414;;;;
2020/06/01 01:53:35;;;;;;;1.9;1.2;;;;;;;9.95;70.38477;941.2452;;;;
2020/06/01 01:56:07;;;;;;;2.9;1.3;;;;;;;9.82;70.26172;941.2145;;;;
2020/06/01 01:58:51;;;;;;;4.5;1.3;;;;;;;9.82;70.2959;941.2249;;;;
2020/06/01 02:00:50;;;;;;;2.2;1.3;;;;;;;9.79;70.2334;941.1794;;;;
2020/06/01 02:07:15;;;;;;;2.4;1.4;;;;;;;9.64;70.42578;941.1316;;;;
2020/06/01 02:07:50;;;;;;;3;1.3;;;;;;;9.7;69.81934;941.1732;;;;
2020/06/01 02:12:49;;;;;;;2.6;1.3;;;;;;;9.62;71.33301;941.1248;;;;
2020/06/01 02:15:12;;;;;;;2.4;1.4;;;;;;;9.54;72.03906;941.1128;;;;
2020/06/01 02:17:37;;;;;;;3.2;1.3;;;;;;;9.64;71.32617;941.1261;;;;
2020/06/01 02:20:07;;;;;;;2.3;1.4;;;;;;;9.6;71.54688;941.1473;;;;
2020/06/01 02:22:32;;;;;;;2;1.3;;;;;;;9.5;71.70117;941.2497;;;;
2020/06/01 02:25:00;;;;;;;2;1.3;;;;;;;9.5;71.4502;941.1852;;;;
2020/06/01 02:27:25;;;;;;;2.5;1.3;;;;;;;9.49;71.71094;941.2073;;;;
2020/06/01 02:29:53;;;;;;;1.7;1.2;;;;;;;9.48;71.19629;941.2319;;;;
2020/06/01 02:32:22;;;;;;;10.1;2.1;;;;;;;9.44;70.89453;941.1516;;;;
2020/06/01 02:34:43;;;;;;;2.9;1.5;;;;;;;9.37;71.01953;941.204;;;;
2020/06/01 02:37:20;;;;;;;8;2;;;;;;;9.38;71.18066;941.2034;;;;
2020/06/01 02:39:52;;;;;;;3.4;1.4;;;;;;;9.3;71.37305;941.1862;;;;
2020/06/01 02:42:17;;;;;;;2.8;1.3;;;;;;;9.2;71.8916;941.2046;;;;
2020/06/01 02:44:46;;;;;;;7.6;1.5;;;;;;;9.09;72.29297;941.15;;;;
2020/06/01 02:47:14;;;;;;;2.7;1.4;;;;;;;9;72.83691;941.1242;;;;
2020/06/01 02:49:39;;;;;;;4.5;1.7;;;;;;;8.84;73.50195;941.1725;;;;
2020/06/01 02:52:06;;;;;;;5.8;1.5;;;;;;;8.74;73.96289;941.1351;;;;
2020/06/01 02:54:31;;;;;;;2.8;1.5;;;;;;;8.82;73.76074;941.1229;;;;
2020/06/01 02:56:56;;;;;;;4.4;1.6;;;;;;;8.9;73.3877;941.0975;;;;
2020/06/01 02:59:22;;;;;;;3.8;1.3;;;;;;;8.81;73.58984;941.1125;;;;
2020/06/01 03:01:47;;;;;;;6.2;1.8;;;;;;;8.62;74.38574;941.0986;;;;
2020/06/01 03:04:19;;;;;;;2.9;1.5;;;;;;;8.5;74.98926;941.2053;;;;
2020/06/01 03:06:44;;;;;;;2.3;1.6;;;;;;;8.61;74.58691;941.1679;;;;
2020/06/01 03:09:13;;;;;;;2.5;1.4;;;;;;;8.67;74.39551;941.2171;;;;
2020/06/01 03:11:36;;;;;;;3.5;1.5;;;;;;;8.67;74.07715;941.2361;;;;
2020/06/01 03:14:03;;;;;;;4.4;1.6;;;;;;;8.48;74.76953;941.2731;;;;
2020/06/01 03:18:56;;;;;;;4.6;1.6;;;;;;;8.22;75.74805;941.1558;;;;
2020/06/01 03:21:21;;;;;;;3.7;1.5;;;;;;;8.19;76.15039;941.2354;;;;
2020/06/01 03:24:02;;;;;;;5.1;1.7;;;;;;;8.28;75.73438;941.2458;;;;
2020/06/01 03:28:37;;;;;;;2.5;1.5;;;;;;;8.46;74.97168;941.2838;;;;
2020/06/01 03:31:28;;;;;;;2.6;1.5;;;;;;;8.54;74.54395;941.296;;;;
2020/06/01 03:33:31;;;;;;;3.8;1.6;;;;;;;8.52;74.56152;941.2224;;;;
2020/06/01 03:36:11;;;;;;;3.4;1.7;;;;;;;8.49;74.62402;941.2994;;;;
2020/06/01 03:38:41;;;;;;;3.9;1.5;;;;;;;8.44;74.88867;941.3278;;;;
2020/06/01 03:41:14;;;;;;;4.2;1.7;;;;;;;8.25;75.50293;941.3174;;;;
2020/06/01 03:43:49;;;;;;;5;1.5;;;;;;;8.19;75.99121;941.3172;;;;
2020/06/01 03:46:26;;;;;;;3.6;1.6;;;;;;;8.19;76.99219;941.4673;;;;
2020/06/01 03:49:03;;;;;;;3.8;1.6;;;;;;;8.36;75.69238;941.4224;;;;
2020/06/01 03:51:37;;;;;;;4.1;1.5;;;;;;;8.38;75.15137;941.4341;;;;
2020/06/01 03:54:02;;;;;;;3.3;1.8;;;;;;;8.43;75.33984;941.4886;;;;
2020/06/01 03:56:28;;;;;;;2.9;1.4;;;;;;;8.43;74.9082;941.5616;;;;
2020/06/01 03:58:55;;;;;;;3;1.5;;;;;;;8.35;75.03223;941.5223;;;;
2020/06/01 04:02:37;;;;;;;3.4;1.5;;;;;;;8.25;75.54785;941.5156;;;;
2020/06/01 04:05:02;;;;;;;5.1;1.7;;;;;;;8.19;75.88965;941.5465;;;;
2020/06/01 04:07:37;;;;;;;4.7;1.6;;;;;;;8.24;75.75098;941.5361;;;;
2020/06/01 04:10:02;;;;;;;2.1;1.3;;;;;;;8.33;75.50781;941.4796;;;;
2020/06/01 04:12:30;;;;;;;1.7;1.4;;;;;;;8.22;75.70215;941.4905;;;;
2020/06/01 04:15:01;;;;;;;4;1.6;;;;;;;8.07;76.60645;941.5245;;;;
2020/06/01 04:17:26;;;;;;;6;1.6;;;;;;;8.06;76.68457;941.442;;;;
2020/06/01 04:19:51;;;;;;;2.6;1.6;;;;;;;8.08;76.63281;941.4608;;;;
2020/06/01 04:22:16;;;;;;;4;1.8;;;;;;;8.18;76.35352;941.3654;;;;
2020/06/01 04:24:42;;;;;;;4.3;1.8;;;;;;;8.07;76.7666;941.4565;;;;
2020/06/01 04:27:19;;;;;;;3.3;1.9;;;;;;;8.05;76.88867;941.4664;;;;
2020/06/01 04:29:45;;;;;;;4.1;1.7;;;;;;;8.07;76.71973;941.4405;;;;
2020/06/01 04:32:11;;;;;;;4.2;2.3;;;;;;;7.97;77.10938;941.4774;;;;
2020/06/01 04:34:36;;;;;;;3.9;2.1;;;;;;;7.99;77.38672;941.4709;;;;
2020/06/01 04:37:01;;;;;;;3.8;1.7;;;;;;;7.91;77.51953;941.4578;;;;
2020/06/01 04:39:28;;;;;;;3.6;1.8;;;;;;;7.75;78.29688;941.3965;;;;
2020/06/01 04:41:53;;;;;;;5.1;1.8;;;;;;;7.81;78.4209;941.4221;;;;
2020/06/01 04:44:22;;;;;;;18.5;3.7;;;;;;;7.79;78.46289;941.4744;;;;
2020/06/01 04:46:48;;;;;;;5.2;1.9;;;;;;;7.75;78.66016;941.5186;;;;
2020/06/01 04:49:13;;;;;;;5.6;2.2;;;;;;;7.61;79.35938;941.4825;;;;
2020/06/01 04:51:38;;;;;;;3;1.7;;;;;;;7.65;79.41309;941.5383;;;;
2020/06/01 04:54:03;;;;;;;4.2;2;;;;;;;7.76;79.11523;941.5038;;;;
2020/06/01 04:56:31;;;;;;;5.2;2;;;;;;;7.93;78.30762;941.4029;;;;
2020/06/01 04:58:57;;;;;;;3.3;1.7;;;;;;;8.11;77.69336;941.4375;;;;
2020/06/01 05:01:22;;;;;;;3.9;1.7;;;;;;;8.14;77.82324;941.3597;;;;
2020/06/01 05:03:47;;;;;;;3.5;1.6;;;;;;;8.9;76.9707;941.3477;;;;
2020/06/01 05:06:12;;;;;;;2.8;1.4;;;;;;;11.03;67.91113;941.274;;;;
2020/06/01 05:08:41;;;;;;;2.5;1.2;;;;;;;12.94;60.47168;941.2241;;;;
2020/06/01 05:11:09;;;;;;;4;1.3;;;;;;;14.61;55.29688;941.2004;;;;
2020/06/01 05:13:35;;;;;;;2.7;1.3;;;;;;;15.99;50.3623;941.1724;;;;
2020/06/01 05:16:00;;;;;;;3;1.3;;;;;;;16.23;49.23242;941.1536;;;;
2020/06/01 05:18:32;;;;;;;3.5;1.2;;;;;;;16.58;48.25293;941.1501;;;;
2020/06/01 05:21:07;;;;;;;1.5;1.1;;;;;;;17.17;46.92773;941.118;;;;
2020/06/01 05:23:32;;;;;;;2.8;1.1;;;;;;;17.92;44.44141;941.0792;;;;
2020/06/01 05:26:02;;;;;;;2.2;1.1;;;;;;;18.82;42.90332;941.127;;;;
2020/06/01 05:28:29;;;;;;;2.2;1.2;;;;;;;19.37;42.32813;941.1657;;;;
2020/06/01 05:31:02;;;;;;;3;1.4;;;;;;;18.73;42.21973;941.1267;;;;
2020/06/01 05:33:27;;;;;;;1.9;1.1;;;;;;;19.3;41.15527;941.147;;;;
2020/06/01 05:35:52;;;;;;;2.4;1.2;;;;;;;19.83;40.07422;941.1252;;;;
2020/06/01 05:38:17;;;;;;;3.2;1;;;;;;;20.46;38.77637;941.0909;;;;
2020/06/01 05:40:49;;;;;;;2.5;1;;;;;;;21.31;37.28223;941.0283;;;;
2020/06/01 05:43:14;;;;;;;4.2;1.1;;;;;;;20.99;37.55957;941.0045;;;;
2020/06/01 05:45:43;;;;;;;1.4;0.9;;;;;;;21.89;36.22949;941.0386;;;;
2020/06/01 05:48:13;;;;;;;2.3;1.1;;;;;;;22.13;35.62891;941.0106;;;;
2020/06/01 05:50:38;;;;;;;2.8;1.2;;;;;;;22.39;34.83887;941.0055;;;;
2020/06/01 05:53:05;;;;;;;2.7;1;;;;;;;21.96;35.18164;940.9526;;;;
2020/06/01 05:55:34;;;;;;;2.5;1;;;;;;;22.75;34.9502;940.9576;;;;
2020/06/01 05:57:59;;;;;;;1.8;1.1;;;;;;;22.54;35.5791;940.8928;;;;
2020/06/01 06:00:29;;;;;;;3;1.1;;;;;;;23.23;33.58887;940.9537;;;;
2020/06/01 06:02:54;;;;;;;1.7;0.9;;;;;;;22.86;34.99414;940.9213;;;;
2020/06/01 06:05:26;;;;;;;2.1;1.2;;;;;;;25;29.91113;940.9147;;;;
2020/06/01 06:07:52;;;;;;;1.3;0.8;;;;;;;25.04;28.78125;940.9457;;;;
2020/06/01 06:10:31;;;;;;;2.5;0.9;;;;;;;24.57;31.5332;940.9459;;;;
2020/06/01 06:12:56;;;;;;;2.2;0.9;;;;;;;24.95;29.27148;940.9539;;;;
2020/06/01 06:15:21;;;;;;;1.5;1;;;;;;;25.26;28.94922;940.9122;;;;
2020/06/01 06:17:53;;;;;;;2;1.2;;;;;;;26.02;27.91016;940.9086;;;;
2020/06/01 06:20:28;;;;;;;1.4;0.9;;;;;;;23.89;30.16602;940.9367;;;;
2020/06/01 06:22:59;;;;;;;1.8;0.9;;;;;;;24.01;32.15234;940.8619;;;;
2020/06/01 06:25:18;;;;;;;2.5;0.9;;;;;;;25.44;30.62598;940.8621;;;;
2020/06/01 06:27:45;;;;;;;1.4;0.9;;;;;;;26.34;30.32129;940.865;;;;
2020/06/01 06:30:10;;;;;;;2.8;1;;;;;;;26.58;28.97559;940.8688;;;;
2020/06/01 06:32:36;;;;;;;3.6;1;;;;;;;28.02;27.64258;940.8791;;;;
2020/06/01 06:35:01;;;;;;;1.8;0.8;;;;;;;28.24;26.06348;940.8348;;;;
2020/06/01 06:39:53;;;;;;;1.7;0.8;;;;;;;29.33;23.875;940.8973;;;;
2020/06/01 06:42:20;;;;;;;1.7;0.8;;;;;;;28.45;24.7207;940.8253;;;;
2020/06/01 06:44:46;;;;;;;3.3;0.8;;;;;;;30.1;24.6084;940.8463;;;;
2020/06/01 06:47:11;;;;;;;2.6;0.7;;;;;;;29.17;23.98535;940.8157;;;;
2020/06/01 06:49:41;;;;;;;1.9;0.9;;;;;;;29.89;23.18945;940.7975;;;;
2020/06/01 06:52:06;;;;;;;2.6;0.9;;;;;;;30.24;22.31152;940.834;;;;
2020/06/01 06:54:31;;;;;;;1.2;0.8;;;;;;;30.01;21.52441;940.7541;;;;
2020/06/01 06:56:56;;;;;;;1.9;0.9;;;;;;;30.03;22.51563;940.7844;;;;
2020/06/01 06:59:21;;;;;;;1.6;0.9;;;;;;;29.44;23.66602;940.8176;;;;
2020/06/01 07:01:46;;;;;;;2.3;0.7;;;;;;;30.16;23.25098;940.7787;;;;
2020/06/01 07:04:22;;;;;;;1.2;0.8;;;;;;;28.69;26.74414;940.8041;;;;
2020/06/01 07:06:47;;;;;;;1.7;0.8;;;;;;;28.93;26.29395;940.7342;;;;
2020/06/01 07:09:16;;;;;;;1.9;0.9;;;;;;;29.7;24.72949;940.6808;;;;
2020/06/01 07:11:41;;;;;;;2.6;1;;;;;;;30.58;24.75391;940.6412;;;;
2020/06/01 07:14:07;;;;;;;1.1;0.7;;;;;;;29.86;25.39453;940.6736;;;;
2020/06/01 07:16:32;;;;;;;2.2;0.9;;;;;;;31.86;23.7334;940.6278;;;;
2020/06/01 07:18:57;;;;;;;1.5;0.7;;;;;;;31.97;22.0498;940.6437;;;;
2020/06/01 07:23:47;;;;;;;1.7;0.9;;;;;;;32.87;22.38086;940.6847;;;;
2020/06/01 07:26:15;;;;;;;1.7;0.8;;;;;;;32.91;21.95117;940.6675;;;;
2020/06/01 07:28:40;;;;;;;1.1;0.7;;;;;;;33.46;22.55469;940.6758;;;;
2020/06/01 07:31:05;;;;;;;2.3;0.8;;;;;;;33.16;20.89355;940.6514;;;;
2020/06/01 07:33:31;;;;;;;2.3;0.8;;;;;;;31.62;24.03223;940.6386;;;;
2020/06/01 07:35:56;;;;;;;1.2;0.7;;;;;;;32.71;22.38574;940.6478;;;;
2020/06/01 07:38:26;;;;;;;1;0.7;;;;;;;33.94;20.70117;940.6496;;;;
2020/06/01 07:40:58;;;;;;;2.1;0.8;;;;;;;34.31;20.89844;940.6301;;;;
2020/06/01 07:43:23;;;;;;;2.5;0.8;;;;;;;35.16;19.56152;940.6602;;;;
2020/06/01 07:45:51;;;;;;;1.4;0.7;;;;;;;35.61;19.24219;940.6136;;;;
2020/06/01 07:48:19;;;;;;;0.7;0.5;;;;;;;35.94;17.99902;940.6369;;;;
2020/06/01 07:50:46;;;;;;;1.5;0.7;;;;;;;36.26;17.95117;940.635;;;;
2020/06/01 07:53:11;;;;;;;1.8;0.6;;;;;;;36.45;17.57129;940.6411;;;;
2020/06/01 07:55:36;;;;;;;1.1;0.7;;;;;;;36.23;17.90137;940.5909;;;;
2020/06/01 07:58:02;;;;;;;1.1;0.6;;;;;;;35.95;17.79395;940.4861;;;;
2020/06/01 08:00:42;;;;;;;2.1;0.7;;;;;;;35.66;18.89453;940.5223;;;;
2020/06/01 08:03:08;;;;;;;2.4;0.7;;;;;;;35.84;18.98633;940.4951;;;;
2020/06/01 08:05:33;;;;;;;1.7;0.7;;;;;;;36.36;17.8584;940.4885;;;;
2020/06/01 08:08:00;;;;;;;1;0.7;;;;;;;36.01;17.97754;940.4736;;;;
2020/06/01 08:10:39;;;;;;;2.4;0.7;;;;;;;35.96;18.13281;940.4815;;;;
2020/06/01 08:13:04;;;;;;;1.4;0.7;;;;;;;36.31;17.62695;940.5555;;;;
2020/06/01 08:15:38;;;;;;;2;0.6;;;;;;;35.91;17.92578;940.4965;;;;
2020/06/01 08:18:06;;;;;;;0.9;0.6;;;;;;;35.96;18.29004;940.5041;;;;
2020/06/01 08:20:29;;;;;;;3;0.7;;;;;;;35.46;19.40527;940.478;;;;
2020/06/01 08:22:54;;;;;;;1.8;0.7;;;;;;;35.54;19.2998;940.4805;;;;
2020/06/01 08:25:26;;;;;;;1.1;0.7;;;;;;;35.55;20.04883;940.4089;;;;
2020/06/01 08:27:51;;;;;;;4.1;0.7;;;;;;;35.9;19.32715;940.3939;;;;
2020/06/01 08:30:27;;;;;;;2.5;0.7;;;;;;;35.5;19.08105;940.3586;;;;
2020/06/01 08:32:53;;;;;;;1.2;0.5;;;;;;;34.6;20.12793;940.3448;;;;
2020/06/01 08:35:21;;;;;;;1.2;0.6;;;;;;;33.62;22.04492;940.303;;;;
2020/06/01 08:37:48;;;;;;;1.3;0.6;;;;;;;34;20.7041;940.3198;;;;
2020/06/01 08:40:23;;;;;;;0.8;0.5;;;;;;;33.91;21;940.332;;;;
2020/06/01 08:42:49;;;;;;;0.9;0.6;;;;;;;34.19;19.82129;940.2257;;;;
2020/06/01 08:45:15;;;;;;;1.3;0.6;;;;;;;34.02;21.55957;940.1945;;;;
2020/06/01 08:47:41;;;;;;;1.9;0.6;;;;;;;33.41;22.66016;940.1756;;;;
2020/06/01 08:50:06;;;;;;;1.7;0.6;;;;;;;33.06;22.34277;940.2272;;;;
2020/06/01 08:52:35;;;;;;;1.1;0.7;;;;;;;33.08;23.1123;940.2379;;;;
2020/06/01 08:55:00;;;;;;;1.3;0.8;;;;;;;32.86;23.19727;940.1822;;;;
2020/06/01 08:57:27;;;;;;;4.2;0.9;;;;;;;32.75;23.11914;940.2054;;;;
2020/06/01 08:59:52;;;;;;;4.7;0.8;;;;;;;32.4;23.72559;940.188;;;;
2020/06/01 09:02:17;;;;;;;1;0.7;;;;;;;31.31;24.44727;940.1443;;;;
2020/06/01 09:04:42;;;;;;;1.9;0.9;;;;;;;30.71;26.20605;940.1076;;;;
2020/06/01 09:07:07;;;;;;;4.2;0.8;;;;;;;30.73;26.2793;940.0977;;;;
2020/06/01 09:09:33;;;;;;;2.9;0.7;;;;;;;30.37;26.47363;940.1277;;;;
2020/06/01 09:11:59;;;;;;;5.4;1.1;;;;;;;29.56;27.78516;940.0923;;;;
2020/06/01 09:14:24;;;;;;;2.2;0.7;;;;;;;29.29;28.10156;940.0753;;;;
2020/06/01 09:17:16;;;;;;;3.7;0.9;;;;;;;29.08;28.625;940.046;;;;
2020/06/01 09:19:14;;;;;;;1.7;0.7;;;;;;;28.98;28.49902;940.058;;;;
2020/06/01 09:21:40;;;;;;;1.2;0.7;;;;;;;28.26;29.0127;940.0651;;;;
2020/06/01 09:24:06;;;;;;;8.2;1.4;;;;;;;27.9;30.98535;940.0022;;;;
2020/06/01 09:26:31;;;;;;;3.7;0.7;;;;;;;27.67;30.46973;940.0013;;;;
2020/06/01 09:28:56;;;;;;;4;1;;;;;;;27.87;31.30273;940.0097;;;;
2020/06/01 09:31:22;;;;;;;9.3;1.2;;;;;;;28.02;30.29199;939.9587;;;;
2020/06/01 09:33:51;;;;;;;2.7;0.9;;;;;;;27.98;30.63379;939.9947;;;;
2020/06/01 09:36:16;;;;;;;1.9;0.7;;;;;;;27.82;30.44531;939.8564;;;;
2020/06/01 09:38:41;;;;;;;3.9;0.9;;;;;;;28.06;31.20898;939.8077;;;;
2020/06/01 09:41:15;;;;;;;3.3;0.9;;;;;;;28.01;31.20508;939.8259;;;;
2020/06/01 09:43:41;;;;;;;3.2;0.8;;;;;;;28;30.97949;939.8583;;;;
2020/06/01 09:46:06;;;;;;;4;1.1;;;;;;;27.49;32.32031;939.807;;;;
2020/06/01 09:48:31;;;;;;;6.1;1;;;;;;;26.99;33.6709;939.8306;;;;
2020/06/01 09:50:58;;;;;;;7.2;1.4;;;;;;;27.18;33.80371;939.8115;;;;
2020/06/01 09:53:23;;;;;;;2.7;0.8;;;;;;;27.32;32.29688;939.7886;;;;
2020/06/01 09:55:48;;;;;;;3.5;0.9;;;;;;;27.35;32.07324;939.8347;;;;
2020/06/01 09:58:15;;;;;;;2.5;0.7;;;;;;;27.15;32.11816;939.7009;;;;
2020/06/01 10:00:47;;;;;;;2;0.8;;;;;;;26.87;34.96582;939.728;;;;
2020/06/01 10:03:13;;;;;;;2.5;0.9;;;;;;;26.88;34.31445;939.7137;;;;
2020/06/01 10:05:38;;;;;;;2.3;0.7;;;;;;;26.41;34.27832;939.6942;;;;
2020/06/01 10:08:07;;;;;;;1.1;0.8;;;;;;;26;34.2002;939.6992;;;;
2020/06/01 10:10:36;;;;;;;2;0.9;;;;;;;25.53;36.95215;939.6351;;;;
2020/06/01 10:13:04;;;;;;;4.8;1;;;;;;;25.47;37.17285;939.5446;;;;
2020/06/01 10:15:35;;;;;;;2;0.8;;;;;;;25.4;36.26855;939.5193;;;;
2020/06/01 10:18:05;;;;;;;3.4;0.8;;;;;;;25.35;36.34668;939.4336;;;;
2020/06/01 10:20:27;;;;;;;6.9;1;;;;;;;25.15;37.79492;939.54;;;;
2020/06/01 10:22:54;;;;;;;2.3;1;;;;;;;25.21;37.74023;939.4094;;;;
2020/06/01 10:25:22;;;;;;;2.5;1.3;;;;;;;25.38;37.15332;939.4311;;;;
2020/06/01 10:27:47;;;;;;;1.7;0.9;;;;;;;25.57;35.26563;939.4416;;;;
2020/06/01 10:30:22;;;;;;;2.6;0.8;;;;;;;25.81;35.83984;939.3452;;;;
2020/06/01 10:32:50;;;;;;;4.5;0.9;;;;;;;25.54;36.17383;939.3987;;;;
2020/06/01 10:35:20;;;;;;;1.8;0.9;;;;;;;25.33;35.7793;939.3577;;;;
2020/06/01 10:37:45;;;;;;;5.4;1.2;;;;;;;25.52;37.02148;939.3502;;;;
2020/06/01 10:40:16;;;;;;;4;0.9;;;;;;;25.58;35.50293;939.3708;;;;
2020/06/01 10:42:41;;;;;;;2.4;0.8;;;;;;;25.64;36.31152;939.3187;;;;
2020/06/01 10:45:23;;;;;;;1.6;0.8;;;;;;;25.52;35.74609;939.2784;;;;
2020/06/01 10:47:51;;;;;;;4.2;0.9;;;;;;;25.57;36.26953;939.2467;;;;
2020/06/01 10:50:23;;;;;;;3;0.9;;;;;;;25.44;36.18945;939.2148;;;;
2020/06/01 10:52:51;;;;;;;5.5;1.2;;;;;;;25.49;35.64941;939.2773;;;;
2020/06/01 10:55:17;;;;;;;3.4;1;;;;;;;25.44;34.74707;939.2487;;;;
2020/06/01 10:57:44;;;;;;;4.2;0.9;;;;;;;25.55;35.39453;939.2115;;;;
2020/06/01 11:00:21;;;;;;;2.8;0.9;;;;;;;25.51;34.73047;939.2086;;;;
2020/06/01 11:02:49;;;;;;;2.8;0.9;;;;;;;25.47;35.10449;939.1919;;;;
2020/06/01 11:05:14;;;;;;;2.1;0.8;;;;;;;25.56;35.08789;939.1884;;;;
2020/06/01 11:07:42;;;;;;;3.1;1.2;;;;;;;25.35;35.54395;939.1047;;;;
2020/06/01 11:10:07;;;;;;;3.8;0.9;;;;;;;25.37;35.53418;939.1054;;;;
2020/06/01 11:12:32;;;;;;;5.5;1.2;;;;;;;25.26;36.04492;939.1406;;;;
2020/06/01 11:14:57;;;;;;;7.4;1.6;;;;;;;25.17;35.7666;939.1649;;;;
2020/06/01 11:17:29;;;;;;;3.7;1.1;;;;;;;25.28;36.03418;939.1609;;;;
2020/06/01 11:19:48;;;;;;;3.1;1;;;;;;;25.36;35.02539;939.1527;;;;
2020/06/01 11:22:12;;;;;;;2.8;1;;;;;;;25.47;35.8252;939.1501;;;;
2020/06/01 11:24:39;;;;;;;2.8;1;;;;;;;25.62;35.12793;939.1765;;;;
2020/06/01 11:27:05;;;;;;;2.8;1;;;;;;;25.8;35.43848;939.134;;;;
2020/06/01 11:29:32;;;;;;;7.7;1.2;;;;;;;25.92;33.98145;939.1398;;;;
2020/06/01 11:32:03;;;;;;;1.5;1;;;;;;;25.91;35.08105;939.1355;;;;
2020/06/01 11:34:28;;;;;;;3;0.9;;;;;;;25.72;34.58105;939.0809;;;;
2020/06/01 11:36:53;;;;;;;2.5;1;;;;;;;25.8;34.92969;939.0753;;;;
2020/06/01 11:39:22;;;;;;;3.8;1;;;;;;;25.79;34.98828;939.0435;;;;
2020/06/01 11:41:47;;;;;;;4;1.2;;;;;;;25.77;34.97461;939.0402;;;;
2020/06/01 11:44:12;;;;;;;9.3;1.1;;;;;;;25.58;34.79492;938.9595;;;;
2020/06/01 11:46:37;;;;;;;3.1;0.9;;;;;;;25.54;35.87793;938.9461;;;;
2020/06/01 11:49:02;;;;;;;4.1;1;;;;;;;25.68;35.44043;938.9882;;;;
2020/06/01 11:51:27;;;;;;;4.6;1;;;;;;;25.54;36.16211;938.9224;;;;
2020/06/01 11:53:57;;;;;;;3.6;1.4;;;;;;;25.29;35.83496;938.9697;;;;
2020/06/01 11:56:22;;;;;;;2.2;1.1;;;;;;;25.36;35.63965;939.0076;;;;
2020/06/01 11:58:47;;;;;;;1.6;1;;;;;;;25.26;35.18262;938.9205;;;;
2020/06/01 12:01:13;;;;;;;3;1.1;;;;;;;25.44;35.03125;938.9649;;;;
2020/06/01 12:03:39;;;;;;;4.1;0.9;;;;;;;25.67;34.68262;938.9674;;;;
2020/06/01 12:06:04;;;;;;;2.7;1;;;;;;;25.7;34.74512;938.9529;;;;
2020/06/01 12:08:31;;;;;;;2.9;1.1;;;;;;;25.79;34.24414;938.8898;;;;
2020/06/01 12:10:56;;;;;;;1.4;0.9;;;;;;;25.93;34.93945;938.884;;;;
2020/06/01 12:13:23;;;;;;;2.4;1;;;;;;;25.94;33.93652;938.9221;;;;
2020/06/01 12:15:48;;;;;;;1.8;0.9;;;;;;;25.81;33.71289;938.9095;;;;
2020/06/01 12:18:15;;;;;;;2.7;1.2;;;;;;;25.72;34.29688;938.9131;;;;
2020/06/01 12:20:41;;;;;;;3.6;1.2;;;;;;;25.81;34.54102;938.8627;;;;
2020/06/01 12:23:06;;;;;;;3.5;1.1;;;;;;;25.87;34.41504;938.8384;;;;
2020/06/01 12:25:32;;;;;;;4.7;1.1;;;;;;;25.92;35.24609;938.8594;;;;
2020/06/01 12:27:57;;;;;;;4.9;1.2;;;;;;;25.88;35.13672;938.8345;;;;
2020/06/01 12:30:27;;;;;;;2.3;1;;;;;;;25.81;34.72949;938.8369;;;;
2020/06/01 12:32:52;;;;;;;4.7;1.1;;;;;;;25.7;34.96875;938.8511;;;;
2020/06/01 12:35:18;;;;;;;3.6;1.1;;;;;;;25.55;35.67773;938.8292;;;;
2020/06/01 12:37:43;;;;;;;3.9;1.1;;;;;;;25.72;35.25391;938.8739;;;;
2020/06/01 12:40:15;;;;;;;6.2;1.5;;;;;;;25.64;36.05176;938.8405;;;;
2020/06/01 12:42:50;;;;;;;1.9;1.1;;;;;;;25.44;35.97559;938.8133;;;;
2020/06/01 12:45:22;;;;;;;6.4;1.2;;;;;;;25.57;35.90332;938.8264;;;;
2020/06/01 12:47:51;;;;;;;9.1;1.5;;;;;;;25.64;35.53125;938.842;;;;
2020/06/01 12:50:14;;;;;;;1.6;1;;;;;;;25.7;34.5791;938.7083;;;;
2020/06/01 12:52:40;;;;;;;9.7;1.3;;;;;;;25.64;35.85059;938.812;;;;
2020/06/01 12:55:05;;;;;;;5.4;1.2;;;;;;;25.53;36.68066;938.8364;;;;
2020/06/01 12:57:31;;;;;;;3.7;1;;;;;;;25.55;35.2998;938.7646;;;;
2020/06/01 12:59:56;;;;;;;4;1.2;;;;;;;25.66;35.70996;938.795;;;;
2020/06/01 13:02:26;;;;;;;3.3;1.2;;;;;;;25.67;35.91211;938.8254;;;;
2020/06/01 13:04:51;;;;;;;4;1.2;;;;;;;25.59;36.15332;938.7855;;;;
2020/06/01 13:07:16;;;;;;;6.3;1.6;;;;;;;25.58;36.31836;938.7886;;;;
2020/06/01 13:09:41;;;;;;;6.5;1.2;;;;;;;25.27;37.21484;938.7994;;;;
2020/06/01 13:12:06;;;;;;;3.1;1.2;;;;;;;25.26;35.94922;938.7961;;;;
2020/06/01 13:14:31;;;;;;;5.3;1.2;;;;;;;25.35;37.24414;938.8091;;;;
2020/06/01 13:21:49;;;;;;;4;1.1;;;;;;;25.46;35.68262;938.697;;;;
2020/06/01 13:24:14;;;;;;;3.8;1.1;;;;;;;25.04;37.125;938.6633;;;;
2020/06/01 13:26:39;;;;;;;3.9;1.2;;;;;;;24.99;37.94629;938.6895;;;;
2020/06/01 13:29:06;;;;;;;8.3;2;;;;;;;24.96;37.16406;938.668;;;;
2020/06/01 13:31:32;;;;;;;6.1;1.3;;;;;;;25.03;37.46582;938.6686;;;;
2020/06/01 13:33:57;;;;;;;5.3;1.3;;;;;;;25.05;36.58301;938.6481;;;;
2020/06/01 13:36:22;;;;;;;3.6;1.1;;;;;;;24.92;37.2207;938.634;;;;
2020/06/01 13:38:47;;;;;;;4.3;1.3;;;;;;;24.78;37.18555;938.7605;;;;
2020/06/01 13:41:13;;;;;;;3.5;1.3;;;;;;;24.63;37.03027;938.7516;;;;
2020/06/01 13:46:04;;;;;;;6;1.3;;;;;;;24.68;38.61523;938.7341;;;;
2020/06/01 13:48:28;;;;;;;2.9;1.1;;;;;;;24.68;37.55469;938.707;;;;
2020/06/01 13:50:54;;;;;;;3.1;1.3;;;;;;;24.67;38.29688;938.7164;;;;
2020/06/01 13:53:19;;;;;;;2.7;1.1;;;;;;;24.38;37.89355;938.6922;;;;
2020/06/01 13:55:45;;;;;;;3.9;1.2;;;;;;;24.39;38.2373;938.7217;;;;
2020/06/01 13:58:10;;;;;;;4.5;1.5;;;;;;;24.27;38.39258;938.7224;;;;
2020/06/01 14:00:36;;;;;;;3.8;1.4;;;;;;;24.4;38.17871;938.7204;;;;
2020/06/01 14:03:03;;;;;;;5;1.4;;;;;;;24.6;38.50293;938.6671;;;;
2020/06/01 14:05:28;;;;;;;4.3;1.3;;;;;;;24.63;38.64648;938.7045;;;;
2020/06/01 14:07:58;;;;;;;3.4;1.3;;;;;;;24.55;38.43945;938.6847;;;;
2020/06/01 14:10:29;;;;;;;2.7;1.2;;;;;;;24.57;38.4873;938.6864;;;;
2020/06/01 14:12:54;;;;;;;5.7;1.3;;;;;;;24.39;37.22363;938.5726;;;;
2020/06/01 14:15:21;;;;;;;5.3;1.2;;;;;;;24.33;38.125;938.6944;;;;
2020/06/01 14:17:48;;;;;;;6.4;1.2;;;;;;;24.31;38.17188;938.6454;;;;
2020/06/01 14:20:15;;;;;;;3.1;1.2;;;;;;;24.34;37.82031;938.6016;;;;
2020/06/01 14:25:06;;;;;;;7.8;1.4;;;;;;;24.02;39.7832;938.6925;;;;
2020/06/01 14:27:30;;;;;;;4.5;1.1;;;;;;;23.95;38.83496;938.6841;;;;
2020/06/01 14:32:37;;;;;;;5;1.6;;;;;;;23.92;38.90332;938.6398;;;;
2020/06/01 14:35:46;;;;;;;2.6;1.2;;;;;;;23.99;39.25;938.5703;;;;
2020/06/01 14:37:17;;;;;;;2.8;1.2;;;;;;;23.93;39.16211;938.6217;;;;
2020/06/01 14:39:44;;;;;;;2.6;1.2;;;;;;;23.88;38.61719;938.6633;;;;
2020/06/01 14:44:35;;;;;;;6.1;1.3;;;;;;;23.92;39.26758;938.5952;;;;
2020/06/01 14:51:49;;;;;;;5.2;1.5;;;;;;;23.82;39.82324;938.5764;;;;
2020/06/01 14:56:38;;;;;;;3.6;1.2;;;;;;;23.76;38.79395;938.5876;;;;
2020/06/01 14:59:04;;;;;;;4.3;1.1;;;;;;;23.73;39.13281;938.585;;;;
2020/06/01 15:03:58;;;;;;;4.8;1.3;;;;;;;23.63;39.92383;938.5906;;;;
2020/06/01 15:06:35;;;;;;;5.5;1.4;;;;;;;23.78;40.2793;938.6047;;;;
2020/06/01 15:08:53;;;;;;;2.4;1.3;;;;;;;23.8;39.98633;938.6348;;;;
2020/06/01 15:14:55;;;;;;;2;1.2;;;;;;;23.48;39.85156;938.5447;;;;
2020/06/01 15:18:36;;;;;;;4.6;1.4;;;;;;;23.5;40.57129;938.6057;;;;
2020/06/01 15:26:07;;;;;;;8;1.6;;;;;;;23.37;40.70117;938.5877;;;;
2020/06/01 15:33:10;;;;;;;3.5;1.2;;;;;;;23.25;39.97266;938.5787;;;;
2020/06/01 15:35:29;;;;;;;7.9;1.5;;;;;;;23.25;39.87891;938.5164;;;;
2020/06/01 15:40:37;;;;;;;8.5;1.8;;;;;;;23.12;40.21875;938.6071;;;;
2020/06/01 15:43:05;;;;;;;3.4;1.2;;;;;;;23.07;39.85059;938.5619;;;;
2020/06/01 15:50:14;;;;;;;9.8;1.5;;;;;;;22.76;40.32813;938.6203;;;;
2020/06/01 15:53:38;;;;;;;3.8;1.3;;;;;;;22.77;40.73926;938.5966;;;;
2020/06/01 15:55:23;;;;;;;2.9;1.4;;;;;;;22.73;40.34863;938.6484;;;;
2020/06/01 15:58:00;;;;;;;3.6;1.5;;;;;;;22.75;40.70313;938.6219;;;;
2020/06/01 16:00:04;;;;;;;5.4;1.3;;;;;;;22.57;39.67578;938.5705;;;;
2020/06/01 16:02:21;;;;;;;6;1.6;;;;;;;22.43;39.88672;938.5779;;;;
2020/06/01 16:09:39;;;;;;;4.5;1.4;;;;;;;22.46;40.77051;938.644;;;;
2020/06/01 16:12:05;;;;;;;7.9;1.7;;;;;;;22.51;41.30273;938.6008;;;;
2020/06/01 16:17:00;;;;;;;5.8;1.4;;;;;;;22.56;41.17871;938.6664;;;;
2020/06/01 16:19:32;;;;;;;4.3;1.3;;;;;;;22.51;41.41992;938.6774;;;;
2020/06/01 16:21:40;;;;;;;3.1;1.4;;;;;;;22.53;40.37793;938.6195;;;;
2020/06/01 16:26:35;;;;;;;5.7;1.3;;;;;;;22.42;41.09473;938.642;;;;
2020/06/01 16:29:00;;;;;;;3.3;1.4;;;;;;;22.49;41.10059;938.6189;;;;